Flight Track Log - Related Links

Times and Time Zones

All times are in EDT time to prevent confusion due to time zone crossing. See the ANO215 flight status page for this flight to view local times or setup timezone preferences in your user account.

Time Position Orientation Groundspeed Altitude Reporting Facility
EDT Latitude Longitude Course Direction KTS MPH feet Rate Location/Type
Wed 11:18:33 PM -12.1288 133.9856 256° West 22,000  Level Aus ATC (Calculated)
Wed 11:18:44 PM -12.1288 133.9856 256° West 22,000 -775 Level Aus ATC (Calculated)
Wed 11:19:24 PM -12.1453 133.9240 256° West 22,000 -795 Level Aus ATC (Calculated)
Wed 11:21:00 PM -12.1724 133.8229 255° West  Level FlightAware Approximate
Wed 11:21:01 PM -12.1618 133.8625 258° West 22,000  Level Aus ATC (Calculated)
Wed 11:22:24 PM -12.1947 133.7393 70° East 22,000 -1,156 Level Aus ATC (Calculated)
Wed 11:24:00 PM -12.2217 133.6381 255° West  Level FlightAware Approximate
Wed 11:25:00 PM -12.2385 133.5749 255° West  Level FlightAware Approximate
Wed 11:26:00 PM -12.2553 133.5116 255° West  Level FlightAware Approximate
Wed 11:26:02 PM -12.1787 133.7838 255° West 217 250 16,200  Level Aus ATC (RADAR)
Wed 11:26:42 PM -12.1941 133.7458 247° West 215 247 17,000 1,047 Climbing Aus ATC (RADAR)
Wed 11:27:28 PM -12.2026 133.7026 259° West 213 245 17,700 857 Climbing Aus ATC (RADAR)
Wed 11:27:52 PM -12.2113 133.6785 250° West 219 252 18,000 750 Climbing Aus ATC (RADAR)
Wed 11:28:32 PM -12.2212 133.6379 256° West 222 255 18,500 872 Climbing Aus ATC (RADAR)
Wed 11:29:49 PM -12.2423 133.5628 254° West 220 253 19,700 960 Climbing Aus ATC (RADAR)
Wed 11:30:12 PM -12.2480 133.5381 257° West 217 250 20,100 931 Climbing Aus ATC (RADAR)
Wed 11:30:47 PM -12.2569 133.5038 255° West 216 249 20,600 720 Climbing Aus ATC (RADAR)
Wed 11:31:27 PM -12.2675 133.4637 255° West 220 253 21,000 720 Climbing Aus ATC (RADAR)
Wed 11:32:02 PM -12.2770 133.4284 255° West 221 254 21,500 706 Climbing Aus ATC (RADAR)
Wed 11:32:52 PM -12.2898 133.3777 256° West 222 255 22,000 400 Climbing Aus ATC (RADAR)
Wed 11:33:17 PM -12.2960 133.3510 257° West 229 264 22,000 -63 Level Aus ATC (RADAR)
Wed 11:34:27 PM -12.3190 133.2709 254° West 255 293 21,900 -60 Descending Aus ATC (RADAR)
Wed 11:34:57 PM -12.3279 133.2348 256° West 260 299 21,900  Level Aus ATC (RADAR)
Wed 11:35:22 PM -12.3360 133.2048 255° West 264 304 21,900  Level Aus ATC (RADAR)
Wed 11:35:57 PM -12.3474 133.1624 255° West 265 305 21,900  Level Aus ATC (RADAR)
Wed 11:36:42 PM -12.3617 133.1078 255° West 266 306 21,900  Level Aus ATC (RADAR)
Wed 11:37:22 PM -12.3753 133.0591 254° West 267 307 21,900  Level Aus ATC (RADAR)
Wed 11:38:07 PM -12.3896 133.0043 255° West 267 307 21,900  Level Aus ATC (RADAR)
Wed 11:38:27 PM -12.3960 132.9801 255° West 266 306 21,900  Level Aus ATC (RADAR)
Wed 11:39:56 PM -12.4253 132.8702 255° West 267 307 21,900  Level Aus ATC (RADAR)
Wed 11:40:19 PM -12.4304 132.8519 254° West 267 307 21,900  Level Aus ATC (RADAR)
Wed 11:41:01 PM -12.4446 132.7969 255° West 268 308 21,900  Level Aus ATC (RADAR)
Wed 11:42:11 PM -12.4675 132.7113 255° West 269 310 21,900  Level Aus ATC (RADAR)
Wed 11:42:46 PM -12.4800 132.6624 255° West 267 307 21,900  Level Aus ATC (RADAR)
Wed 11:43:26 PM -12.4928 132.6138 255° West 266 306 21,900  Level Aus ATC (RADAR)
Wed 11:44:56 PM -12.5218 132.5044 255° West 267 307 21,900  Level Aus ATC (RADAR)
Wed 11:45:25 PM -12.5312 132.4678 255° West 267 307 21,900  Level Aus ATC (RADAR)
Wed 11:45:46 PM -12.5375 132.4435 255° West 266 306 21,900  Level Aus ATC (RADAR)
Wed 11:46:21 PM -12.5487 132.4009 255° West 266 306 21,900  Level Aus ATC (RADAR)
Wed 11:47:06 PM -12.5631 132.3458 255° West 268 308 21,900  Level Aus ATC (RADAR)
Wed 11:47:46 PM -12.5757 132.2970 255° West 267 307 21,900  Level Aus ATC (RADAR)
Wed 11:48:40 PM -12.5813 132.2287 265° West 268 308 21,900  Level Aus ATC (RADAR)
Wed 11:49:35 PM -12.5618 132.1616 287° West 265 305 21,900  Level Aus ATC (RADAR)
Wed 11:49:52 PM -12.5576 132.1433 283° West 264 304 21,900  Level Aus ATC (RADAR)
Wed 11:50:36 PM -12.5435 132.0879 285° West 264 304 21,900  Level Aus ATC (RADAR)
Wed 11:51:11 PM -12.5324 132.0448 285° West 265 305 21,900  Level Aus ATC (RADAR)
Wed 11:52:00 PM -12.5176 131.9833 284° West 265 305 21,900  Level Aus ATC (RADAR)
Wed 11:52:35 PM -12.5071 131.9402 284° West 265 305 21,900  Level Aus ATC (RADAR)
Wed 11:53:25 PM -12.4923 131.8788 284° West 263 303 21,900  Level Aus ATC (RADAR)
Wed 11:53:50 PM -12.4848 131.8482 284° West 264 304 21,900  Level Aus ATC (RADAR)
Wed 11:54:40 PM -12.4696 131.7870 284° West 263 303 21,900  Level Aus ATC (RADAR)
Wed 11:55:15 PM -12.4595 131.7442 284° West 263 303 21,900  Level Aus ATC (RADAR)
Wed 11:55:50 PM -12.4561 131.7002 274° West 261 300 21,900  Level Aus ATC (RADAR)
Wed 11:56:40 PM -12.4489 131.6379 277° West 263 303 21,900 -81 Level Aus ATC (RADAR)
Wed 11:57:04 PM -12.4451 131.6064 277° West 263 303 21,800 -1,017 Descending Aus ATC (RADAR)
Wed 11:57:39 PM -12.4399 131.5602 277° West 275 316 20,900 -1,521 Descending Aus ATC (RADAR)
Wed 11:58:15 PM -12.4338 131.5109 277° West 292 336 20,000 -1,520 Descending Aus ATC (RADAR)
Wed 11:58:54 PM -12.4269 131.4534 277° West 300 345 19,000 -1,558 Descending Aus ATC (RADAR)
Wed 11:59:59 PM -12.4164 131.3607 277° West 296 341 17,300 -1,412 Descending Aus ATC (RADAR)
Thu 12:00:19 AM -12.4144 131.3465 278° West 295 339 17,000 -762 Descending Aus ATC (RADAR)
Thu 12:01:02 AM -12.4102 131.3117 277° West 292 336 16,500 -652 Descending Aus ATC (RADAR)
Thu 12:01:51 AM -12.4045 131.2644 277° West 282 325 16,000 -815 Descending Aus ATC (RADAR)
Thu 12:02:23 AM -12.3994 131.2188 276° West 273 314 15,400 -1,213 Descending Aus ATC (RADAR)
Thu 12:03:25 AM -12.3874 131.1185 277° West 283 326 14,100 -1,247 Descending Aus ATC (RADAR)
Thu 12:03:40 AM -12.3841 131.0914 277° West 283 326 13,800 -1,516 Descending Aus ATC (RADAR)
Thu 12:05:00 AM -12.3519 130.9613 284° West 278 320 11,700 -1,673 Descending Aus ATC (RADAR)
Thu 12:05:24 AM -12.3417 130.9308 289° West 264 304 10,900 -1,889 Descending Aus ATC (RADAR)
Thu 12:05:54 AM -12.3310 130.8962 288° West 249 287 10,000 -1,200 Descending Aus ATC (RADAR)
Thu 12:06:29 AM -12.3191 130.8597 289° West 227 261 9,600 -1,622 Descending Aus ATC (RADAR)
Thu 12:07:08 AM -12.3059 130.8193 288° West 219 252 8,000 -2,506 Descending Aus ATC (RADAR)
Thu 12:07:48 AM -12.2918 130.7767 289° West 227 261 6,300 -2,118 Descending Aus ATC (RADAR)
Thu 12:08:33 AM -12.2762 130.7296 289° West 223 257 5,000 -1,714 Descending Aus ATC (RADAR)
Thu 12:08:58 AM -12.2752 130.7033 272° West 227 261 4,300 -1,029 Descending Aus ATC (RADAR)
Thu 12:10:18 AM -12.3388 130.6775 202° Southwest 169 194 3,200 -780 Descending Aus ATC (RADAR)
Thu 12:10:38 AM -12.3500 130.6860 143° Southeast 152 175 3,000 -214 Descending Aus ATC (RADAR)
Thu 12:11:14 AM -12.3557 130.7105 103° East 145 167 3,000 -72 Level Aus ATC (RADAR)
Thu 12:12:01 AM -12.3613 130.7290 107° East 136 157 2,900 -276 Descending Aus ATC (RADAR)
Thu 12:12:41 AM -12.3640 130.7380 107° East 133 153 2,600 -319 Descending Aus ATC (RADAR)
Thu 12:13:35 AM -12.3668 130.7467 108° East 131 151 2,400 -250 Descending Aus ATC (RADAR)
Thu 12:13:53 AM -12.3696 130.7553 109° East 128 147 2,300 -240 Descending Aus ATC (RADAR)
Thu 12:15:15 AM -12.3764 130.7747 110° East 125 144 2,000 -303 Descending Aus ATC (RADAR)
Thu 12:15:52 AM -12.3845 130.7969 110° East 123 142 1,700 -762 Descending Aus ATC (RADAR)
Thu 12:16:18 AM -12.3925 130.8194 110° East 125 144 1,200 -689 Descending Aus ATC (RADAR)
Thu 12:16:53 AM -12.3956 130.8279 110° East 126 145 1,000 -380 Descending Aus ATC (RADAR)
Thu 12:17:37 AM -12.3992 130.8363 114° Southeast 127 146 700 -293 Descending Aus ATC (RADAR)
Thu 12:18:15 AM -12.4014 130.8418 113° Southeast 126 145 600 -188 Descending Aus ATC (RADAR)
Thu 12:19:13 AM -12.4060 130.8551 109° East 120 138 400 -207 Descending Aus ATC (RADAR)
Thu 12:22:00 AM -12.4147 130.8767 113° Southeast  Level Estimated

Login

Don't have an account? Register now (free) for customized features, flight alerts, and more!